Time;durP1;ratioP1;P1;durP2;ratioP2;P2;SDS_P1;SDS_P2;PMS_P1;PMS_P2;Temp;Humidity;BMP_temperature;BMP_pressure;BME280_temperature;BME280_humidity;BME280_pressure;Samples;Min_cycle;Max_cycle;Signal;HPM_P1;HPM_P2
2023/11/12 00:00:17;;;;;;;0.10;0.10;;;;;;;2.50;100.00;95188.06;1023146;29;20166;-72
2023/11/12 00:00:48;;;;;;;0.38;0.38;;;;;;;2.49;100.00;95186.50;1026384;28;20030;-75
2023/11/12 00:01:21;;;;;;;0.52;0.52;;;;;;;2.44;100.00;95178.59;1030933;28;20505;-73
2023/11/12 00:01:52;;;;;;;0.10;0.10;;;;;;;2.49;100.00;95180.53;1027506;28;20121;-72
2023/11/12 00:02:22;;;;;;;1.17;1.08;;;;;;;2.51;100.00;95188.84;1027210;28;20360;-73
2023/11/12 00:02:53;;;;;;;0.00;0.00;;;;;;;2.52;100.00;95185.25;1026043;28;20035;-73
2023/11/12 00:03:23;;;;;;;0.10;0.10;;;;;;;2.55;100.00;95187.41;1024315;28;20042;-73
2023/11/12 00:03:56;;;;;;;0.75;0.52;;;;;;;2.52;100.00;95186.03;1035548;28;20022;-73
2023/11/12 00:04:26;;;;;;;0.52;0.52;;;;;;;2.54;100.00;95178.81;1040563;28;20120;-72
2023/11/12 00:04:57;;;;;;;1.02;0.63;;;;;;;2.55;100.00;95180.41;1036288;28;20352;-73
2023/11/12 00:05:27;;;;;;;0.32;0.32;;;;;;;2.54;100.00;95184.00;1035259;28;20022;-73
2023/11/12 00:05:58;;;;;;;0.10;0.10;;;;;;;2.50;100.00;95182.88;1035243;28;20037;-71
2023/11/12 00:06:28;;;;;;;0.10;0.10;;;;;;;2.48;100.00;95177.16;1032512;28;20026;-72
2023/11/12 00:06:59;;;;;;;0.00;0.00;;;;;;;2.51;100.00;95173.31;1038333;28;20554;-73
2023/11/12 00:07:29;;;;;;;0.47;0.45;;;;;;;2.56;100.00;95174.22;1035027;28;20038;-73
2023/11/12 00:08:00;;;;;;;0.20;0.20;;;;;;;2.60;100.00;95182.31;1035185;28;20120;-74
2023/11/12 00:08:31;;;;;;;0.05;0.05;;;;;;;2.59;100.00;95176.34;1031201;28;20433;-73
2023/11/12 00:09:04;;;;;;;0.30;0.30;;;;;;;2.56;100.00;95176.03;1039535;28;20022;-73
2023/11/12 00:09:35;;;;;;;0.17;0.17;;;;;;;2.63;100.00;95181.09;1039606;28;20264;-73
2023/11/12 00:10:11;;;;;;;0.80;0.80;;;;;;;2.62;100.00;95174.34;1039626;28;20364;-74
2023/11/12 00:10:42;;;;;;;0.10;0.10;;;;;;;2.62;100.00;95184.69;1034427;28;20333;-73
2023/11/12 00:11:14;;;;;;;1.00;0.90;;;;;;;2.64;100.00;95180.06;1030834;28;20760;-73
2023/11/12 00:11:44;;;;;;;0.20;0.20;;;;;;;2.67;100.00;95182.22;1029211;28;20065;-72
2023/11/12 00:12:15;;;;;;;0.30;0.30;;;;;;;2.66;100.00;95178.06;1031280;28;20696;-73
2023/11/12 00:12:45;;;;;;;0.22;0.22;;;;;;;2.62;100.00;95163.97;1035143;28;20025;-72
2023/11/12 00:13:16;;;;;;;0.25;0.25;;;;;;;2.62;100.00;95174.34;1031043;28;20018;-73
2023/11/12 00:13:48;;;;;;;0.55;0.35;;;;;;;2.60;100.00;95174.56;1029851;28;20031;-71
2023/11/12 00:14:18;;;;;;;0.22;0.22;;;;;;;2.64;100.00;95172.28;1031371;28;20062;-71
2023/11/12 00:14:49;;;;;;;0.70;0.70;;;;;;;2.65;100.00;95174.69;1031309;28;20312;-72
2023/11/12 00:15:19;;;;;;;0.30;0.30;;;;;;;2.66;100.00;95171.06;1031452;28;20069;-72
2023/11/12 00:15:51;;;;;;;0.43;0.43;;;;;;;2.68;100.00;95176.00;1039302;28;20029;-72
2023/11/12 00:16:22;;;;;;;0.17;0.17;;;;;;;2.64;100.00;95180.06;1039401;28;20033;-73
2023/11/12 00:16:52;;;;;;;0.00;0.00;;;;;;;2.65;100.00;95173.88;1034926;28;20273;-73
2023/11/12 00:17:24;;;;;;;0.35;0.35;;;;;;;2.67;100.00;95169.25;1035103;28;20041;-74
2023/11/12 00:17:55;;;;;;;1.75;0.47;;;;;;;2.63;100.00;95181.09;1030812;28;20046;-72
2023/11/12 00:18:26;;;;;;;0.65;0.57;;;;;;;2.63;100.00;95174.09;1027209;28;20274;-74
2023/11/12 00:18:56;;;;;;;0.10;0.10;;;;;;;2.60;100.00;95170.16;1031139;28;20093;-74
2023/11/12 00:19:27;;;;;;;0.10;0.10;;;;;;;2.59;100.00;95171.19;1027309;28;20280;-73
2023/11/12 00:19:57;;;;;;;0.73;0.73;;;;;;;2.60;100.00;95170.16;1030932;28;20027;-72
2023/11/12 00:20:28;;;;;;;0.43;0.28;;;;;;;2.63;100.00;95168.94;1033291;28;20034;-72
2023/11/12 00:20:58;;;;;;;0.10;0.10;;;;;;;2.62;100.00;95172.53;1030243;28;20137;-73
2023/11/12 00:21:29;;;;;;;0.32;0.32;;;;;;;2.67;100.00;95169.25;1030953;28;20716;-73
2023/11/12 00:21:59;;;;;;;0.57;0.47;;;;;;;2.66;100.00;95170.28;1027851;28;20035;-72
2023/11/12 00:22:30;;;;;;;0.73;0.73;;;;;;;2.68;100.00;95170.81;1031015;28;20049;-72
2023/11/12 00:23:01;;;;;;;0.10;0.10;;;;;;;2.69;100.00;95170.63;1031176;28;20030;-71
2023/11/12 00:23:33;;;;;;;0.25;0.25;;;;;;;2.67;100.00;95172.63;1031024;28;20038;-73
2023/11/12 00:24:04;;;;;;;0.57;0.57;;;;;;;2.62;100.00;95153.63;1035043;28;20120;-72
2023/11/12 00:24:35;;;;;;;0.10;0.10;;;;;;;2.66;100.00;95163.28;1027497;28;20809;-73
2023/11/12 00:25:06;;;;;;;0.30;0.30;;;;;;;2.67;100.00;95166.66;1035017;28;20125;-73
2023/11/12 00:25:36;;;;;;;0.32;0.32;;;;;;;2.66;100.00;95165.09;1034644;28;20037;-73
2023/11/12 00:26:07;;;;;;;0.00;0.00;;;;;;;2.68;100.00;95163.06;1030780;28;20281;-71
2023/11/12 00:26:37;;;;;;;0.25;0.25;;;;;;;2.66;100.00;95165.88;1031172;28;20041;-72
2023/11/12 00:27:08;;;;;;;0.93;0.82;;;;;;;2.67;100.00;95166.66;1022805;28;20106;-73
2023/11/12 00:27:40;;;;;;;0.08;0.08;;;;;;;2.66;100.00;95165.88;1029619;28;20034;-72
2023/11/12 00:28:10;;;;;;;0.00;0.00;;;;;;;2.64;100.00;95159.34;1022811;29;20104;-72
2023/11/12 00:28:41;;;;;;;0.50;0.50;;;;;;;2.56;100.00;95150.13;1026278;28;20344;-72
2023/11/12 00:29:11;;;;;;;2.65;1.17;;;;;;;2.65;100.00;95155.72;1030668;28;20022;-72
2023/11/12 00:29:41;;;;;;;0.10;0.10;;;;;;;2.63;100.00;95144.84;1030948;28;20042;-72
2023/11/12 00:30:13;;;;;;;0.15;0.15;;;;;;;2.64;100.00;95149.00;1034797;28;20406;-73
2023/11/12 00:30:44;;;;;;;0.38;0.38;;;;;;;2.69;100.00;95155.06;1030170;28;20536;-72
2023/11/12 00:31:14;;;;;;;0.45;0.45;;;;;;;2.67;100.00;95151.13;1030051;28;20329;-72
2023/11/12 00:31:45;;;;;;;0.15;0.15;;;;;;;2.71;100.00;95157.41;1029978;28;20458;-72
2023/11/12 00:32:15;;;;;;;0.22;0.22;;;;;;;2.68;100.00;95152.69;1032021;28;20734;-73
2023/11/12 00:32:46;;;;;;;0.38;0.38;;;;;;;2.64;100.00;95141.22;1038610;28;20033;-72
2023/11/12 00:33:16;;;;;;;0.30;0.30;;;;;;;2.71;100.00;95152.25;1034917;28;20037;-73
2023/11/12 00:33:47;;;;;;;0.30;0.30;;;;;;;2.70;100.00;95153.25;1038907;28;20034;-74
2023/11/12 00:34:18;;;;;;;0.52;0.52;;;;;;;2.70;100.00;95148.09;1026772;28;20109;-71
2023/11/12 00:34:48;;;;;;;0.20;0.20;;;;;;;2.74;100.00;95151.78;1026953;28;20113;-72
2023/11/12 00:35:19;;;;;;;0.80;0.80;;;;;;;2.71;100.00;95155.63;1026893;28;20105;-74
2023/11/12 00:35:49;;;;;;;0.30;0.30;;;;;;;2.64;100.00;95147.19;1032085;28;20084;-72
2023/11/12 00:36:20;;;;;;;0.30;0.30;;;;;;;2.72;100.00;95156.44;1030967;28;20031;-73
2023/11/12 00:36:51;;;;;;;1.63;1.13;;;;;;;2.71;100.00;95149.66;1034912;28;20088;-73
2023/11/12 00:37:21;;;;;;;0.55;0.55;;;;;;;2.74;100.00;95156.97;1039181;28;20032;-72
2023/11/12 00:37:53;;;;;;;0.10;0.10;;;;;;;2.74;100.00;95149.19;1035093;28;20287;-72
2023/11/12 00:38:24;;;;;;;0.28;0.28;;;;;;;2.72;100.00;95138.28;1039035;28;20051;-72
2023/11/12 00:38:55;;;;;;;0.20;0.20;;;;;;;2.72;100.00;95143.47;1037083;28;20639;-74
2023/11/12 00:39:26;;;;;;;0.65;0.43;;;;;;;2.76;100.00;95147.97;1031689;28;20360;-72
2023/11/12 00:39:56;;;;;;;0.38;0.10;;;;;;;2.76;100.00;95149.78;1038936;28;20366;-73
2023/11/12 00:40:27;;;;;;;0.75;0.60;;;;;;;2.75;100.00;95153.34;1034951;28;20138;-73
2023/11/12 00:40:58;;;;;;;0.20;0.20;;;;;;;2.74;100.00;95151.78;1033154;28;20079;-73
2023/11/12 00:41:28;;;;;;;0.40;0.40;;;;;;;2.77;100.00;95146.16;1034980;28;20489;-75
2023/11/12 00:41:59;;;;;;;0.93;0.52;;;;;;;2.79;100.00;95147.50;1030918;28;20030;-72
2023/11/12 00:42:29;;;;;;;0.95;0.95;;;;;;;2.83;100.00;95150.44;1025823;28;20038;-73
2023/11/12 00:43:02;;;;;;;0.32;0.32;;;;;;;2.80;100.00;95149.06;1026763;28;20065;-72
2023/11/12 00:43:34;;;;;;;1.98;1.45;;;;;;;2.81;100.00;95142.09;1027415;28;20042;-72
2023/11/12 00:44:06;;;;;;;0.57;0.57;;;;;;;2.83;100.00;95146.03;1031981;28;20269;-73
2023/11/12 00:44:37;;;;;;;0.08;0.08;;;;;;;2.84;100.00;95145.00;1034753;28;20257;-72
2023/11/12 00:45:08;;;;;;;1.08;0.90;;;;;;;2.83;100.00;95151.22;1031561;28;20285;-73
2023/11/12 00:45:39;;;;;;;0.55;0.55;;;;;;;2.86;100.00;95147.38;1031774;28;20385;-72
2023/11/12 00:46:09;;;;;;;0.40;0.40;;;;;;;2.87;100.00;95148.94;1034915;28;20038;-72
2023/11/12 00:46:40;;;;;;;0.30;0.30;;;;;;;2.88;100.00;95150.53;1034993;28;20033;-72
2023/11/12 00:47:11;;;;;;;0.47;0.47;;;;;;;2.83;100.00;95140.06;1030823;28;20041;-72
2023/11/12 00:47:41;;;;;;;0.43;0.43;;;;;;;2.89;100.00;95149.53;1034763;28;20768;-73
2023/11/12 00:48:13;;;;;;;0.13;0.13;;;;;;;2.89;100.00;95149.53;1034483;28;20063;-72
2023/11/12 00:48:44;;;;;;;0.43;0.43;;;;;;;2.89;100.00;95149.53;1034938;28;20033;-72
2023/11/12 00:49:14;;;;;;;0.47;0.47;;;;;;;2.90;100.00;95151.09;1033495;28;20711;-73
2023/11/12 00:49:45;;;;;;;0.75;0.75;;;;;;;2.93;100.00;95148.03;1026777;28;20034;-73
2023/11/12 00:50:16;;;;;;;0.43;0.43;;;;;;;2.80;100.00;95136.13;1026279;28;20030;-73
2023/11/12 00:50:46;;;;;;;0.03;0.03;;;;;;;2.90;100.00;95153.69;1028201;28;20615;-72
2023/11/12 00:51:17;;;;;;;0.20;0.20;;;;;;;2.89;100.00;95144.34;1026501;28;20274;-73
2023/11/12 00:51:47;;;;;;;0.60;0.60;;;;;;;2.92;100.00;95148.25;1023659;28;20032;-72
2023/11/12 00:52:18;;;;;;;0.30;0.30;;;;;;;2.98;100.00;95144.75;1028621;28;20027;-72
2023/11/12 00:52:48;;;;;;;0.10;0.10;;;;;;;2.98;100.00;95147.34;1024797;28;20123;-71
2023/11/12 00:53:19;;;;;;;0.95;0.82;;;;;;;2.95;100.00;95152.97;1030791;28;20030;-72
2023/11/12 00:53:50;;;;;;;0.20;0.20;;;;;;;2.92;100.00;95146.47;1030696;28;20054;-73
2023/11/12 00:54:20;;;;;;;0.15;0.15;;;;;;;2.94;100.00;95141.84;1027043;28;20038;-73
2023/11/12 00:54:51;;;;;;;0.50;0.50;;;;;;;2.93;100.00;95145.44;1029831;28;20038;-71
2023/11/12 00:55:21;;;;;;;2.47;1.48;;;;;;;2.92;100.00;95138.72;1027000;28;20062;-74
2023/11/12 00:55:52;;;;;;;0.15;0.15;;;;;;;2.84;100.00;95128.69;1031019;28;20038;-72
2023/11/12 00:56:23;;;;;;;0.08;0.08;;;;;;;2.94;100.00;95144.44;1031110;28;20050;-71
2023/11/12 00:56:53;;;;;;;0.22;0.22;;;;;;;2.96;100.00;95149.41;1034949;28;20288;-72
2023/11/12 00:57:24;;;;;;;0.30;0.30;;;;;;;2.96;100.00;95145.00;1038850;28;20104;-73
2023/11/12 00:57:54;;;;;;;0.32;0.32;;;;;;;2.91;100.00;95128.56;1037463;28;20472;-72
2023/11/12 00:58:26;;;;;;;0.30;0.30;;;;;;;2.98;100.00;95142.94;1038891;28;20033;-75
2023/11/12 00:58:56;;;;;;;1.10;1.00;;;;;;;3.01;100.00;95142.50;1039151;28;20039;-73
2023/11/12 00:59:27;;;;;;;0.10;0.10;;;;;;;3.03;100.00;95139.69;1042990;28;20286;-72
2023/11/12 00:59:58;;;;;;;0.30;0.30;;;;;;;3.02;100.00;95136.31;1045698;28;20043;-73
2023/11/12 01:00:28;;;;;;;0.77;0.43;;;;;;;2.94;100.00;95131.47;1043086;28;20440;-75
2023/11/12 01:00:59;;;;;;;0.13;0.13;;;;;;;2.96;100.00;95121.69;1038547;28;20033;-72
2023/11/12 01:01:29;;;;;;;0.30;0.30;;;;;;;3.04;100.00;95139.44;1034439;28;20041;-72
2023/11/12 01:02:01;;;;;;;0.22;0.22;;;;;;;2.96;100.00;95126.84;1030952;28;20532;-73
2023/11/12 01:02:31;;;;;;;0.25;0.25;;;;;;;3.02;100.00;95133.72;1030555;28;20030;-72
2023/11/12 01:03:06;;;;;;;0.25;0.25;;;;;;;3.00;100.00;95129.78;1033074;28;20740;-73
2023/11/12 01:03:37;;;;;;;0.17;0.17;;;;;;;3.02;100.00;95133.72;1034393;28;20890;-71
2023/11/12 01:04:07;;;;;;;0.13;0.13;;;;;;;3.03;100.00;95130.09;1037961;28;20267;-72
2023/11/12 01:04:38;;;;;;;0.63;0.30;;;;;;;3.00;100.00;95127.97;1035568;28;20057;-73
2023/11/12 01:05:08;;;;;;;1.02;0.95;;;;;;;2.95;100.00;95121.88;1027334;28;20038;-72
2023/11/12 01:05:39;;;;;;;0.20;0.20;;;;;;;3.01;100.00;95126.94;1026736;28;20083;-74
2023/11/12 01:06:09;;;;;;;0.15;0.15;;;;;;;3.01;100.00;95132.13;1027029;28;20438;-73
2023/11/12 01:06:40;;;;;;;0.65;0.60;;;;;;;3.03;100.00;95130.09;1026759;28;20038;-73
2023/11/12 01:07:10;;;;;;;0.40;0.30;;;;;;;3.05;100.00;95127.28;1026955;28;20035;-72
2023/11/12 01:07:41;;;;;;;0.88;0.80;;;;;;;3.03;100.00;95127.50;1030740;28;20117;-73
2023/11/12 01:08:11;;;;;;;0.22;0.22;;;;;;;3.04;100.00;95126.50;1026773;28;20039;-72
2023/11/12 01:08:43;;;;;;;0.10;0.10;;;;;;;3.06;100.00;95127.06;1029941;28;20034;-72
2023/11/12 01:09:13;;;;;;;0.63;0.60;;;;;;;3.04;100.00;95123.91;1030608;28;20123;-71
2023/11/12 01:09:46;;;;;;;0.10;0.10;;;;;;;3.03;100.00;95119.75;1030871;28;20404;-72
2023/11/12 01:10:16;;;;;;;0.45;0.45;;;;;;;2.99;100.00;95116.03;1029069;28;20041;-73
2023/11/12 01:10:47;;;;;;;0.20;0.20;;;;;;;3.07;100.00;95123.44;1034447;28;20387;-72
2023/11/12 01:11:18;;;;;;;0.40;0.22;;;;;;;2.99;100.00;95116.03;1031181;28;20031;-73
2023/11/12 01:11:48;;;;;;;0.10;0.10;;;;;;;3.05;100.00;95124.69;1034485;28;20834;-73
2023/11/12 01:12:19;;;;;;;0.43;0.43;;;;;;;2.98;100.00;95111.84;1030919;28;20034;-73
2023/11/12 01:12:50;;;;;;;0.40;0.40;;;;;;;3.06;100.00;95124.47;1022929;29;20063;-73
2023/11/12 01:13:20;;;;;;;0.15;0.15;;;;;;;3.03;100.00;95119.75;1022932;29;20122;-73
2023/11/12 01:13:51;;;;;;;0.17;0.17;;;;;;;3.04;100.00;95118.72;1026707;28;20442;-72
2023/11/12 01:14:21;;;;;;;0.38;0.38;;;;;;;2.96;100.00;95107.94;1039727;28;20428;-73
2023/11/12 01:14:52;;;;;;;1.08;0.85;;;;;;;2.98;100.00;95119.63;1039273;28;20811;-72
2023/11/12 01:15:23;;;;;;;0.00;0.00;;;;;;;3.02;100.00;95110.41;1035390;28;20037;-73
2023/11/12 01:15:53;;;;;;;0.22;0.10;;;;;;;3.04;100.00;95117.94;1039864;28;20040;-73
2023/11/12 01:16:24;;;;;;;0.90;0.90;;;;;;;3.05;100.00;95122.91;1028199;28;20042;-73
2023/11/12 01:16:55;;;;;;;0.08;0.08;;;;;;;3.03;100.00;95118.97;1031753;28;20037;-73
2023/11/12 01:17:25;;;;;;;0.00;0.00;;;;;;;3.02;100.00;95117.38;1031553;28;20026;-74
2023/11/12 01:17:57;;;;;;;0.08;0.08;;;;;;;3.04;100.00;95113.53;1035575;28;20061;-72
2023/11/12 01:18:28;;;;;;;0.15;0.15;;;;;;;3.01;100.00;95108.03;1039436;28;20459;-73
2023/11/12 01:18:59;;;;;;;2.00;0.50;;;;;;;3.03;100.00;95116.38;1035286;28;20775;-73
2023/11/12 01:19:29;;;;;;;0.00;0.00;;;;;;;3.02;100.00;95118.16;1039162;28;20337;-73
2023/11/12 01:20:03;;;;;;;0.38;0.38;;;;;;;3.01;100.00;95113.19;1034714;28;20038;-74
2023/11/12 01:20:34;;;;;;;0.60;0.60;;;;;;;2.96;100.00;95108.72;1038480;28;20033;-73
2023/11/12 01:21:04;;;;;;;0.50;0.50;;;;;;;3.00;100.00;95119.41;1034314;28;20299;-72
2023/11/12 01:21:35;;;;;;;0.28;0.28;;;;;;;2.99;100.00;95112.66;1034767;28;20261;-73
2023/11/12 01:22:06;;;;;;;0.20;0.20;;;;;;;2.99;100.00;95115.25;1038752;28;20481;-72
2023/11/12 01:22:36;;;;;;;0.10;0.08;;;;;;;2.97;100.00;95112.09;1034928;28;20506;-73
2023/11/12 01:23:07;;;;;;;0.30;0.30;;;;;;;2.96;100.00;95111.31;1034828;28;20040;-73
2023/11/12 01:23:37;;;;;;;1.17;0.40;;;;;;;2.84;100.00;95090.59;1030522;28;20062;-71
2023/11/12 01:24:08;;;;;;;1.20;0.52;;;;;;;2.86;100.00;95092.97;1031091;28;20411;-74
2023/11/12 01:24:39;;;;;;;0.25;0.25;;;;;;;2.90;100.00;95104.44;1031139;28;20121;-73
2023/11/12 01:25:09;;;;;;;0.20;0.20;;;;;;;2.89;100.00;95102.09;1034872;28;20030;-73
2023/11/12 01:25:41;;;;;;;0.20;0.20;;;;;;;2.92;100.00;95111.97;1034757;28;20621;-71
2023/11/12 01:26:11;;;;;;;0.45;0.45;;;;;;;2.89;100.00;95105.47;1038770;28;20029;-72
2023/11/12 01:26:42;;;;;;;0.40;0.40;;;;;;;2.84;100.00;95095.78;1038919;28;20268;-72
2023/11/12 01:27:12;;;;;;;0.10;0.10;;;;;;;2.85;100.00;95094.00;1034550;28;20029;-72
2023/11/12 01:27:42;;;;;;;0.08;0.08;;;;;;;2.87;100.00;95107.50;1035056;28;20029;-72
2023/11/12 01:28:13;;;;;;;0.47;0.47;;;;;;;2.83;100.00;95106.38;1030750;28;20105;-74
2023/11/12 01:28:43;;;;;;;0.20;0.20;;;;;;;2.77;100.00;95095.13;1030598;28;20045;-72
2023/11/12 01:29:14;;;;;;;0.38;0.38;;;;;;;2.81;100.00;95106.59;1030875;28;20110;-71
2023/11/12 01:29:44;;;;;;;0.40;0.40;;;;;;;2.82;100.00;95107.41;1030697;28;20113;-71
2023/11/12 01:30:15;;;;;;;0.10;0.10;;;;;;;2.77;100.00;95102.13;1030847;28;20685;-73
2023/11/12 01:30:46;;;;;;;1.35;0.98;;;;;;;2.75;100.00;95098.97;1030209;28;20414;-73
2023/11/12 01:31:16;;;;;;;0.40;0.30;;;;;;;2.83;100.00;95104.59;1030987;28;20030;-72
2023/11/12 01:31:47;;;;;;;0.80;0.80;;;;;;;2.82;100.00;95102.22;1034751;28;20116;-72
2023/11/12 01:32:17;;;;;;;0.22;0.22;;;;;;;2.84;100.00;95105.38;1026543;28;20031;-72
2023/11/12 01:32:52;;;;;;;2.45;1.17;;;;;;;2.82;100.00;95102.22;1034644;28;20030;-72
2023/11/12 01:33:22;;;;;;;0.55;0.30;;;;;;;2.75;100.00;95097.19;1035610;28;20029;-71
2023/11/12 01:33:52;;;;;;;0.15;0.10;;;;;;;2.80;100.00;95104.25;1039769;28;20287;-70
2023/11/12 01:34:23;;;;;;;0.30;0.30;;;;;;;2.74;100.00;95087.81;1039032;28;20044;-71
2023/11/12 01:34:54;;;;;;;1.77;1.60;;;;;;;2.79;100.00;95102.69;1030493;28;20030;-70
2023/11/12 01:35:24;;;;;;;0.25;0.25;;;;;;;2.81;100.00;95098.81;1030696;28;20050;-72
2023/11/12 01:35:55;;;;;;;0.20;0.20;;;;;;;2.82;100.00;95102.22;1034515;28;20573;-72
2023/11/12 01:36:26;;;;;;;0.28;0.20;;;;;;;2.82;100.00;95094.47;1034911;28;20555;-72
2023/11/12 01:36:57;;;;;;;0.35;0.32;;;;;;;2.81;100.00;95095.47;1038893;28;20300;-71
2023/11/12 01:37:27;;;;;;;0.10;0.10;;;;;;;2.80;100.00;95096.47;1038924;28;20339;-72
2023/11/12 01:37:58;;;;;;;0.20;0.20;;;;;;;2.77;100.00;95094.34;1038703;28;20029;-72
2023/11/12 01:38:31;;;;;;;0.00;0.00;;;;;;;2.80;100.00;95101.66;1038900;28;20036;-72
2023/11/12 01:39:02;;;;;;;0.47;0.47;;;;;;;2.78;100.00;95094.13;1033359;28;20284;-71
2023/11/12 01:39:33;;;;;;;0.28;0.28;;;;;;;2.76;100.00;95097.97;1026415;28;20361;-72
2023/11/12 01:40:04;;;;;;;0.77;0.77;;;;;;;2.76;100.00;95095.38;1027268;28;20278;-71
2023/11/12 01:40:39;;;;;;;0.90;0.50;;;;;;;2.71;100.00;95084.91;1022977;28;20499;-70
2023/11/12 01:41:10;;;;;;;0.55;0.55;;;;;;;2.68;100.00;95085.34;1023222;28;20334;-70
2023/11/12 01:41:40;;;;;;;0.10;0.10;;;;;;;2.75;100.00;95097.19;1034591;28;20704;-72
2023/11/12 01:42:11;;;;;;;0.43;0.43;;;;;;;2.70;100.00;95085.91;1030654;28;20034;-72
2023/11/12 01:42:43;;;;;;;1.08;0.77;;;;;;;2.76;100.00;95092.78;1029757;28;20034;-71
2023/11/12 01:43:16;;;;;;;2.83;1.00;;;;;;;2.72;100.00;95092.47;1030964;28;20284;-70
2023/11/12 01:43:47;;;;;;;0.00;0.00;;;;;;;2.75;100.00;95093.78;1031349;28;20345;-71
2023/11/12 01:44:17;;;;;;;2.20;1.98;;;;;;;2.74;100.00;95097.41;1035182;28;20273;-71
2023/11/12 01:44:48;;;;;;;0.30;0.28;;;;;;;2.73;100.00;95094.03;1034022;28;20041;-70
2023/11/12 01:45:18;;;;;;;0.00;0.00;;;;;;;2.74;100.00;95094.81;1026677;28;20046;-71
2023/11/12 01:45:49;;;;;;;0.13;0.13;;;;;;;2.67;100.00;95084.56;1031397;28;20478;-71
2023/11/12 01:46:20;;;;;;;0.20;0.20;;;;;;;2.69;100.00;95082.56;1038728;28;20029;-72
2023/11/12 01:46:51;;;;;;;0.38;0.20;;;;;;;2.74;100.00;95087.03;1038832;28;20644;-71
2023/11/12 01:47:21;;;;;;;0.10;0.10;;;;;;;2.75;100.00;95091.19;1030558;28;20039;-69
2023/11/12 01:47:52;;;;;;;0.10;0.10;;;;;;;2.70;100.00;95083.34;1030665;28;20297;-71
2023/11/12 01:48:22;;;;;;;0.20;0.20;;;;;;;2.70;100.00;95085.91;1034794;28;20099;-70
2023/11/12 01:48:54;;;;;;;0.32;0.32;;;;;;;2.73;100.00;95088.84;1030835;28;20030;-71
2023/11/12 01:49:24;;;;;;;0.35;0.35;;;;;;;2.69;100.00;95074.78;1031076;28;20037;-71
2023/11/12 01:49:55;;;;;;;0.30;0.30;;;;;;;2.70;100.00;95083.34;1026389;28;20272;-71
2023/11/12 01:50:25;;;;;;;0.80;0.43;;;;;;;2.76;100.00;95097.97;1027592;28;20027;-70
2023/11/12 01:50:56;;;;;;;0.10;0.10;;;;;;;2.71;100.00;95084.91;1029816;28;20030;-72
2023/11/12 01:51:27;;;;;;;0.45;0.32;;;;;;;2.76;100.00;95090.19;1025328;28;20545;-72
2023/11/12 01:51:58;;;;;;;0.00;0.00;;;;;;;2.70;100.00;95085.91;1026429;28;20037;-71
2023/11/12 01:52:28;;;;;;;0.40;0.40;;;;;;;2.74;100.00;95090.41;1026477;28;20269;-71
2023/11/12 01:52:59;;;;;;;5.80;0.55;;;;;;;2.75;100.00;95096.38;1030223;28;20030;-71
2023/11/12 01:53:29;;;;;;;0.30;0.30;;;;;;;2.73;100.00;95088.06;1026153;28;20030;-72
2023/11/12 01:54:00;;;;;;;0.00;0.00;;;;;;;2.76;100.00;95100.56;1029176;28;20054;-72
2023/11/12 01:54:31;;;;;;;1.20;1.10;;;;;;;2.70;100.00;95085.91;1032388;28;20022;-70
2023/11/12 01:55:01;;;;;;;0.00;0.00;;;;;;;2.73;100.00;95088.06;1032177;28;20030;-72
2023/11/12 01:55:32;;;;;;;0.10;0.10;;;;;;;2.75;100.00;95084.22;1032201;28;20634;-71
2023/11/12 01:56:03;;;;;;;0.10;0.10;;;;;;;2.77;100.00;95086.56;1035385;28;20018;-71
2023/11/12 01:56:34;;;;;;;0.55;0.55;;;;;;;2.70;100.00;95072.97;1028774;28;20265;-70
2023/11/12 01:57:04;;;;;;;0.00;0.00;;;;;;;2.75;100.00;95086.81;1026207;28;20026;-72
2023/11/12 01:57:39;;;;;;;0.25;0.25;;;;;;;2.78;100.00;95095.91;1030159;28;20086;-72
2023/11/12 01:58:10;;;;;;;0.75;0.75;;;;;;;2.78;100.00;95080.38;1038499;28;20025;-73
2023/11/12 01:58:40;;;;;;;0.30;0.30;;;;;;;2.72;100.00;95083.91;1034368;28;20257;-70
2023/11/12 01:59:11;;;;;;;0.95;0.93;;;;;;;2.76;100.00;95085.78;1034307;28;20033;-72
2023/11/12 01:59:42;;;;;;;0.00;0.00;;;;;;;2.77;100.00;95095.13;1030256;28;20033;-71
2023/11/12 02:00:15;;;;;;;0.90;0.90;;;;;;;2.76;100.00;95083.19;1037825;28;20788;-70
2023/11/12 02:00:47;;;;;;;0.15;0.15;;;;;;;2.76;100.00;95082.41;1038115;28;20036;-72
2023/11/12 02:01:17;;;;;;;0.40;0.40;;;;;;;2.76;100.00;95097.97;1038528;28;20248;-72
2023/11/12 02:01:50;;;;;;;0.00;0.00;;;;;;;2.75;100.00;95080.81;1034370;28;20297;-71
2023/11/12 02:02:20;;;;;;;0.32;0.32;;;;;;;2.75;100.00;95088.59;1030496;28;20018;-71
2023/11/12 02:02:52;;;;;;;0.40;0.40;;;;;;;2.73;100.00;95075.88;1026412;28;20250;-73
2023/11/12 02:03:22;;;;;;;0.55;0.55;;;;;;;2.75;100.00;95083.41;1026425;28;20065;-71
2023/11/12 02:03:53;;;;;;;0.25;0.25;;;;;;;2.69;100.00;95071.41;1030044;28;20321;-71
2023/11/12 02:04:24;;;;;;;0.20;0.20;;;;;;;2.70;100.00;95075.56;1030415;28;20037;-71
2023/11/12 02:04:55;;;;;;;1.00;1.00;;;;;;;2.74;100.00;95085.22;1030027;28;20266;-71
2023/11/12 02:05:25;;;;;;;0.10;0.10;;;;;;;2.70;100.00;95078.16;1026597;28;20443;-71
2023/11/12 02:05:56;;;;;;;0.10;0.10;;;;;;;2.75;100.00;95083.41;1026707;28;20159;-71
2023/11/12 02:06:26;;;;;;;0.10;0.10;;;;;;;2.74;100.00;95085.22;1026775;28;20026;-71
2023/11/12 02:06:59;;;;;;;0.65;0.65;;;;;;;2.75;100.00;95080.81;1034314;28;20021;-70
2023/11/12 02:07:30;;;;;;;0.40;0.40;;;;;;;2.67;100.00;95068.25;1034489;28;20084;-71
2023/11/12 02:08:03;;;;;;;0.28;0.28;;;;;;;2.75;100.00;95080.81;1030488;28;20308;-70
2023/11/12 02:08:34;;;;;;;0.30;0.30;;;;;;;2.73;100.00;95082.88;1031138;28;20422;-73
2023/11/12 02:09:05;;;;;;;0.32;0.32;;;;;;;2.76;100.00;95078.03;1034629;28;20731;-71
2023/11/12 02:09:36;;;;;;;1.13;0.20;;;;;;;2.73;100.00;95073.28;1034175;28;20272;-73
2023/11/12 02:10:11;;;;;;;0.10;0.10;;;;;;;2.74;100.00;95082.63;1034383;28;20032;-71
2023/11/12 02:10:48;;;;;;;0.17;0.17;;;;;;;2.77;100.00;95083.97;1030735;28;20478;-71
2023/11/12 02:11:19;;;;;;;0.95;0.95;;;;;;;2.75;100.00;95076.47;1027930;28;20259;-70
2023/11/12 02:11:50;;;;;;;0.45;0.45;;;;;;;2.74;100.00;95080.03;1026241;28;20781;-72
2023/11/12 02:12:21;;;;;;;0.28;0.28;;;;;;;2.77;100.00;95078.81;1030557;28;20265;-72
2023/11/12 02:12:51;;;;;;;4.18;0.75;;;;;;;2.73;100.00;95064.75;1034563;28;20018;-72
2023/11/12 02:13:22;;;;;;;1.58;1.48;;;;;;;2.79;100.00;95081.97;1030488;28;20019;-71
2023/11/12 02:13:54;;;;;;;0.47;0.47;;;;;;;2.77;100.00;95078.81;1030011;28;20066;-71
2023/11/12 02:14:25;;;;;;;0.38;0.38;;;;;;;2.76;100.00;95072.06;1034370;28;20042;-72
2023/11/12 02:14:56;;;;;;;0.25;0.25;;;;;;;2.75;100.00;95075.66;1034339;28;20269;-73
2023/11/12 02:15:26;;;;;;;0.55;0.40;;;;;;;2.76;100.00;95077.25;1030450;28;20270;-73
2023/11/12 02:15:57;;;;;;;0.60;0.60;;;;;;;2.75;100.00;95078.22;1026378;28;20035;-71
2023/11/12 02:16:27;;;;;;;0.00;0.00;;;;;;;2.75;100.00;95080.81;1026591;28;20825;-73
2023/11/12 02:16:58;;;;;;;0.30;0.22;;;;;;;2.75;100.00;95078.22;1034404;28;20040;-72
2023/11/12 02:17:30;;;;;;;1.55;0.73;;;;;;;2.74;100.00;95074.88;1034437;28;20025;-71
2023/11/12 02:18:00;;;;;;;0.08;0.08;;;;;;;2.73;100.00;95075.88;1030572;28;20768;-71
2023/11/12 02:18:30;;;;;;;0.35;0.35;;;;;;;2.73;100.00;95077.69;1027495;28;20312;-70
2023/11/12 02:19:01;;;;;;;0.20;0.20;;;;;;;2.69;100.00;95071.41;1028709;28;20026;-72
2023/11/12 02:19:31;;;;;;;0.05;0.05;;;;;;;2.66;100.00;95066.69;1027845;28;20935;-73
2023/11/12 02:20:07;;;;;;;0.45;0.30;;;;;;;2.71;100.00;95074.53;1033316;28;20037;-72
2023/11/12 02:20:48;;;;;;;0.17;0.17;;;;;;;2.70;100.00;95072.97;1033596;28;20034;-71
2023/11/12 02:21:24;;;;;;;0.17;0.17;;;;;;;2.67;100.00;95074.22;1028299;28;20354;-72
2023/11/12 02:21:55;;;;;;;0.00;0.00;;;;;;;2.67;100.00;95068.25;1020384;28;20287;-71
2023/11/12 02:22:25;;;;;;;0.65;0.50;;;;;;;2.61;100.00;95062.16;1025826;28;20329;-71
2023/11/12 02:22:56;;;;;;;0.00;0.00;;;;;;;2.55;100.00;95058.72;1028434;28;20332;-71
2023/11/12 02:23:26;;;;;;;0.20;0.20;;;;;;;2.64;100.00;95066.13;1029300;28;20018;-72
2023/11/12 02:23:57;;;;;;;2.25;0.30;;;;;;;2.57;100.00;95061.84;1032813;28;20078;-72
2023/11/12 02:24:27;;;;;;;0.10;0.10;;;;;;;2.60;100.00;95069.16;1037678;28;20099;-71
2023/11/12 02:24:57;;;;;;;0.43;0.43;;;;;;;2.59;100.00;95072.78;1037116;28;20527;-71
2023/11/12 02:25:28;;;;;;;0.00;0.00;;;;;;;2.54;100.00;95066.69;1034658;28;20433;-71
2023/11/12 02:25:59;;;;;;;0.20;0.20;;;;;;;2.49;100.00;95059.63;1038323;28;20048;-72